createdAt,value
2019-01-03T00:01:00.450Z,94749.33
2019-01-03T00:03:39.671Z,94769.92
2019-01-03T00:06:16.180Z,94770.40
2019-01-03T00:08:57.423Z,94778.24
2019-01-03T00:11:32.551Z,94776.08
2019-01-03T00:14:15.917Z,94781.78
2019-01-03T00:18:55.602Z,94784.02
2019-01-03T00:21:33.951Z,94786.73
2019-01-03T00:24:08.466Z,94787.76
2019-01-03T00:26:59.764Z,94787.40
2019-01-03T00:29:34.926Z,94790.55
2019-01-03T00:32:10.211Z,94789.11
2019-01-03T00:34:47.711Z,94782.92
2019-01-03T00:37:22.296Z,94789.21
2019-01-03T00:40:02.891Z,94790.79
2019-01-03T00:42:40.396Z,94792.00
2019-01-03T00:45:20.780Z,94798.10
2019-01-03T00:47:55.418Z,94775.23
2019-01-03T00:50:30.062Z,94791.83
2019-01-03T00:53:08.176Z,94796.08
2019-01-03T00:55:58.465Z,94791.20
2019-01-03T00:58:37.915Z,94788.53
2019-01-03T01:01:11.563Z,94793.30
2019-01-03T01:03:47.987Z,94787.31
2019-01-03T01:06:22.442Z,94787.31
2019-01-03T01:08:59.768Z,94786.30
2019-01-03T01:11:40.489Z,94781.44
2019-01-03T01:14:15.104Z,94786.49
2019-01-03T01:18:51.786Z,94781.25
2019-01-03T01:21:28.295Z,94772.70
2019-01-03T01:24:09.496Z,94765.30
2019-01-03T01:28:47.083Z,94766.39
2019-01-03T01:31:21.810Z,94767.70
2019-01-03T01:33:56.241Z,94769.52
2019-01-03T01:36:31.508Z,94760.30
2019-01-03T01:39:06.006Z,94760.59
2019-01-03T01:43:44.696Z,94767.70
2019-01-03T01:46:20.176Z,94763.07
2019-01-03T01:49:02.582Z,94761.54
2019-01-03T01:51:37.156Z,94764.26
2019-01-03T01:54:16.615Z,94756.95
2019-01-03T01:56:51.087Z,94757.91
2019-01-03T01:59:29.551Z,94757.23
2019-01-03T02:02:04.249Z,94748.44
2019-01-03T02:06:42.067Z,94715.59
2019-01-03T02:09:15.603Z,94740.61
2019-01-03T02:11:50.421Z,94742.83
2019-01-03T02:15:31.070Z,94738.50
2019-01-03T02:20:07.439Z,94737.60
2019-01-03T02:24:45.070Z,94737.41
2019-01-03T02:27:33.384Z,94735.03
2019-01-03T02:30:10.600Z,94699.48
2019-01-03T02:32:45.469Z,94729.48
2019-01-03T02:35:25.918Z,94732.75
2019-01-03T02:38:00.744Z,94734.81
2019-01-03T02:40:44.124Z,94734.49
2019-01-03T02:43:35.608Z,94731.02
2019-01-03T02:46:10.952Z,94730.56
2019-01-03T02:48:46.462Z,94729.89
2019-01-03T02:51:20.989Z,94732.84
2019-01-03T02:55:59.307Z,94730.19
2019-01-03T02:58:40.792Z,94737.48
2019-01-03T03:02:17.275Z,94734.14
2019-01-03T03:04:53.831Z,94740.56
2019-01-03T03:07:31.899Z,94744.17
2019-01-03T03:12:07.370Z,94737.06
2019-01-03T03:14:44.069Z,94750.53
2019-01-03T03:17:18.525Z,94745.17
2019-01-03T03:19:54.963Z,94750.31
2019-01-03T03:22:29.512Z,94748.02
2019-01-03T03:25:34.899Z,94747.96
2019-01-03T03:30:10.569Z,94742.98
2019-01-03T03:32:46.546Z,94745.42
2019-01-03T03:37:24.925Z,94752.41
2019-01-03T03:40:05.322Z,94755.06
2019-01-03T03:42:59.772Z,94756.64
2019-01-03T03:46:36.202Z,94765.70
2019-01-03T03:49:12.402Z,94760.89
2019-01-03T03:52:22.136Z,94764.73
2019-01-03T03:57:02.509Z,94769.08
2019-01-03T03:59:38.218Z,94776.16
2019-01-03T04:02:16.514Z,94771.94
2019-01-03T04:05:05.308Z,94771.33
2019-01-03T04:07:39.791Z,94772.68
2019-01-03T04:10:26.469Z,94777.89
2019-01-03T04:12:59.921Z,94781.13
2019-01-03T04:17:35.723Z,94777.66
2019-01-03T04:20:10.289Z,94783.25
2019-01-03T04:22:45.227Z,94761.27
2019-01-03T04:27:20.660Z,94781.39
2019-01-03T04:29:55.239Z,94785.98
2019-01-03T04:32:36.715Z,94786.53
2019-01-03T04:37:12.593Z,94795.08
2019-01-03T04:39:46.009Z,94795.70
2019-01-03T04:44:26.357Z,94791.13
2019-01-03T04:46:59.759Z,94784.41
2019-01-03T04:49:34.496Z,94787.24
2019-01-03T04:54:10.075Z,94787.11
2019-01-03T04:56:44.700Z,94795.20
2019-01-03T04:59:21.900Z,94793.86
2019-01-03T05:01:56.931Z,94797.39
2019-01-03T05:04:39.162Z,94802.69
2019-01-03T05:07:18.576Z,94808.06
2019-01-03T05:09:53.080Z,94809.05
2019-01-03T05:12:27.744Z,94815.85
2019-01-03T05:15:20.117Z,94816.68
2019-01-03T05:17:54.826Z,94818.59
2019-01-03T05:22:31.581Z,94823.93
2019-01-03T05:25:07.143Z,94832.42
2019-01-03T05:27:44.307Z,94837.56
2019-01-03T05:31:17.897Z,94838.67
2019-01-03T05:33:56.272Z,94841.33
2019-01-03T05:37:02.027Z,94829.51
2019-01-03T05:41:39.440Z,94836.11
2019-01-03T05:44:23.119Z,94830.97
2019-01-03T05:48:58.604Z,94829.39
2019-01-03T05:52:04.198Z,94832.27
2019-01-03T05:54:47.434Z,94838.38
2019-01-03T05:57:22.026Z,94839.17
2019-01-03T05:59:56.443Z,94856.25
2019-01-03T06:02:34.017Z,94853.37
2019-01-03T06:05:08.682Z,94850.00
2019-01-03T06:08:14.183Z,94853.23
2019-01-03T06:10:53.557Z,94860.33
2019-01-03T06:15:31.431Z,94847.33
2019-01-03T06:18:05.864Z,94856.18
2019-01-03T06:20:40.536Z,94863.56
2019-01-03T06:23:18.941Z,94860.17
2019-01-03T06:25:53.581Z,94862.13
2019-01-03T06:28:28.149Z,94869.03
2019-01-03T06:33:03.925Z,94870.50
2019-01-03T06:37:45.457Z,94870.61
2019-01-03T06:40:21.117Z,94873.18
2019-01-03T06:44:58.446Z,94869.75
2019-01-03T06:47:38.764Z,94873.98
2019-01-03T06:50:13.786Z,94879.84
2019-01-03T06:52:53.427Z,94886.87
2019-01-03T06:55:46.179Z,94899.34
2019-01-03T06:58:19.571Z,94893.05
2019-01-03T07:00:58.928Z,94895.81
2019-01-03T07:04:31.518Z,94899.20
2019-01-03T07:07:09.125Z,94906.95
2019-01-03T07:09:44.069Z,94905.95
2019-01-03T07:12:18.655Z,94910.36
2019-01-03T07:14:53.432Z,94915.64
2019-01-03T07:17:30.007Z,94886.27
2019-01-03T07:20:03.840Z,94922.93
2019-01-03T07:22:38.092Z,94925.45
2019-01-03T07:25:13.074Z,94929.78
2019-01-03T07:29:49.283Z,94929.26
2019-01-03T07:32:23.681Z,94925.52
2019-01-03T07:35:00.453Z,94928.14
2019-01-03T07:38:37.262Z,94931.87
2019-01-03T07:42:14.940Z,94937.38
2019-01-03T07:44:49.788Z,94940.13
2019-01-03T07:47:24.484Z,94935.68
2019-01-03T07:49:59.331Z,94932.97
2019-01-03T07:54:37.392Z,94940.82
2019-01-03T07:57:21.418Z,94944.73
2019-01-03T08:00:27.195Z,94940.55
2019-01-03T08:04:02.364Z,94945.70
2019-01-03T08:07:41.341Z,94948.53
2019-01-03T08:12:19.119Z,94942.88
2019-01-03T08:14:55.595Z,94952.69
2019-01-03T08:17:33.540Z,94946.44
2019-01-03T08:20:08.500Z,94953.25
2019-01-03T08:22:52.961Z,94958.76
2019-01-03T08:25:32.181Z,94953.59
2019-01-03T08:30:09.991Z,94948.59
2019-01-03T08:32:44.612Z,94945.03
2019-01-03T08:36:18.376Z,94950.55
2019-01-03T08:39:26.981Z,94949.05
2019-01-03T08:42:02.341Z,94950.42
2019-01-03T08:44:37.333Z,94945.65
2019-01-03T08:47:11.979Z,94950.73
2019-01-03T08:49:48.213Z,94946.77
2019-01-03T08:52:30.329Z,94944.81
2019-01-03T08:55:10.199Z,94939.59
2019-01-03T08:58:44.247Z,94931.52
2019-01-03T09:01:50.957Z,94933.66
2019-01-03T09:06:32.092Z,94936.23
2019-01-03T09:11:13.659Z,94929.00
2019-01-03T09:13:52.596Z,94914.20
2019-01-03T09:16:35.763Z,94914.09
2019-01-03T09:19:10.759Z,94908.81
2019-01-03T09:22:19.010Z,94900.73
2019-01-03T09:24:54.167Z,94896.28
2019-01-03T09:27:29.092Z,94895.84
2019-01-03T09:31:05.947Z,94897.94
2019-01-03T09:33:42.643Z,94891.07
2019-01-03T09:37:15.485Z,94890.69
2019-01-03T09:41:53.030Z,94883.09
2019-01-03T09:44:28.026Z,94885.95
2019-01-03T09:46:57.814Z,94878.69
2019-01-03T09:49:28.999Z,94873.34
2019-01-03T09:51:58.607Z,94868.83
2019-01-03T09:54:28.085Z,94870.61
2019-01-03T09:56:59.454Z,94857.30
2019-01-03T09:59:29.358Z,94858.01
2019-01-03T10:01:59.070Z,94854.89
2019-01-03T10:04:28.936Z,94860.39
2019-01-03T10:06:58.453Z,94858.75
2019-01-03T10:09:28.174Z,94855.75
2019-01-03T10:11:57.813Z,94854.75
2019-01-03T10:14:27.581Z,94856.45
2019-01-03T10:16:57.079Z,94857.06
2019-01-03T10:19:26.729Z,94864.02
2019-01-03T10:21:56.247Z,94851.41
2019-01-03T10:24:26.086Z,94847.84
2019-01-03T10:26:55.990Z,94846.30
2019-01-03T10:29:25.571Z,94852.09
2019-01-03T10:31:55.188Z,94845.88
2019-01-03T10:34:24.792Z,94849.26
2019-01-03T10:36:54.168Z,94840.58
2019-01-03T10:39:24.000Z,94835.58
2019-01-03T10:41:53.717Z,94830.62
2019-01-03T10:44:23.394Z,94824.62
2019-01-03T10:46:52.898Z,94822.94
2019-01-03T10:49:22.719Z,94821.25
2019-01-03T10:51:52.441Z,94821.77
2019-01-03T10:54:22.138Z,94814.25
2019-01-03T10:56:51.890Z,94819.93
2019-01-03T10:59:21.467Z,94805.38
2019-01-03T11:01:51.083Z,94803.09
2019-01-03T11:04:20.907Z,94801.59
2019-01-03T11:06:50.384Z,94811.88
2019-01-03T11:09:20.014Z,94807.53
2019-01-03T11:11:50.237Z,94811.88
2019-01-03T11:14:19.623Z,94809.16
2019-01-03T11:16:49.078Z,94805.56
2019-01-03T11:19:18.860Z,94806.25
2019-01-03T11:21:48.197Z,94803.19
2019-01-03T11:24:17.846Z,94800.14
2019-01-03T11:26:47.501Z,94798.64
2019-01-03T11:29:17.269Z,94797.03
2019-01-03T11:31:46.764Z,94794.97
2019-01-03T11:34:16.678Z,94788.81
2019-01-03T11:36:46.656Z,94785.06
2019-01-03T11:39:16.195Z,94784.88
2019-01-03T11:41:46.100Z,94783.50
2019-01-03T11:44:15.836Z,94781.32
2019-01-03T11:46:47.791Z,94780.79
2019-01-03T11:49:17.467Z,94786.44
2019-01-03T11:51:47.063Z,94779.51
2019-01-03T11:54:16.955Z,94780.51
2019-01-03T11:56:46.668Z,94780.70
2019-01-03T11:59:16.387Z,94781.70
2019-01-03T12:01:46.220Z,94786.66
2019-01-03T12:04:15.642Z,94788.41
2019-01-03T12:06:45.187Z,94778.61
2019-01-03T12:09:14.702Z,94784.06
2019-01-03T12:11:46.230Z,94783.75
2019-01-03T12:14:15.853Z,94794.06
2019-01-03T12:16:45.562Z,94793.94
2019-01-03T12:19:15.296Z,94809.00
2019-01-03T12:21:45.591Z,94804.04
2019-01-03T12:24:14.453Z,94807.19
2019-01-03T12:26:44.608Z,94801.63
2019-01-03T12:29:14.204Z,94799.81
2019-01-03T12:31:43.811Z,94794.38
2019-01-03T12:34:13.668Z,94795.47
2019-01-03T12:36:43.559Z,94798.44
2019-01-03T12:39:13.244Z,94804.41
2019-01-03T12:41:46.211Z,94808.31
2019-01-03T12:44:15.860Z,94801.22
2019-01-03T12:46:45.862Z,94802.70
2019-01-03T12:49:15.592Z,94807.62
2019-01-03T12:51:44.987Z,94811.49
2019-01-03T12:54:14.776Z,94811.66
2019-01-03T12:56:44.468Z,94806.62
2019-01-03T12:59:14.328Z,94809.23
2019-01-03T13:01:44.064Z,94819.71
2019-01-03T13:04:13.661Z,94811.25
2019-01-03T13:06:43.251Z,94825.91
2019-01-03T13:09:18.172Z,94821.20
2019-01-03T13:11:48.524Z,94823.17
2019-01-03T13:14:18.240Z,94824.83
2019-01-03T13:16:47.974Z,94824.50
2019-01-03T13:19:17.647Z,94830.73
2019-01-03T13:21:47.367Z,94830.66
2019-01-03T13:24:17.625Z,94832.80
2019-01-03T13:26:47.388Z,94829.62
2019-01-03T13:29:17.064Z,94826.80
2019-01-03T13:31:47.093Z,94828.19
2019-01-03T13:34:16.728Z,94822.26
2019-01-03T13:36:46.572Z,94821.89
2019-01-03T13:39:17.555Z,94815.63
2019-01-03T13:41:46.099Z,94809.66
2019-01-03T13:44:15.720Z,94808.80
2019-01-03T13:46:45.406Z,94804.61
2019-01-03T13:49:14.939Z,94799.66
2019-01-03T13:51:45.137Z,94807.93
2019-01-03T13:54:14.951Z,94804.91
2019-01-03T13:56:44.636Z,94806.05
2019-01-03T13:59:14.609Z,94810.73
2019-01-03T14:01:44.564Z,94813.62
2019-01-03T14:04:14.383Z,94812.78
2019-01-03T14:06:44.098Z,94808.63
2019-01-03T14:09:14.274Z,94811.67
2019-01-03T14:11:43.929Z,94803.48
2019-01-03T14:14:14.051Z,94803.95
2019-01-03T14:16:44.242Z,94804.00
2019-01-03T14:19:13.876Z,94801.84
2019-01-03T14:21:43.489Z,94799.88
2019-01-03T14:24:13.572Z,94799.55
2019-01-03T14:26:43.377Z,94808.13
2019-01-03T14:29:12.835Z,94800.02
2019-01-03T14:31:43.939Z,94805.70
2019-01-03T14:34:12.430Z,94806.23
2019-01-03T14:36:41.959Z,94806.98
2019-01-03T14:39:11.714Z,94799.24
2019-01-03T14:41:41.684Z,94809.02
2019-01-03T14:44:11.202Z,94801.50
2019-01-03T14:46:40.892Z,94803.53
2019-01-03T14:49:10.476Z,94704.14
2019-01-03T14:51:40.105Z,94809.23
2019-01-03T14:54:12.272Z,94819.48
2019-01-03T14:56:41.996Z,94819.94
2019-01-03T14:59:11.742Z,94819.06
2019-01-03T15:01:41.747Z,94820.42
2019-01-03T15:04:11.240Z,94822.12
2019-01-03T15:06:40.954Z,94817.42
2019-01-03T15:09:10.512Z,94824.66
2019-01-03T15:11:40.384Z,94830.61
2019-01-03T15:14:09.657Z,94828.77
2019-01-03T15:16:40.387Z,94828.23
2019-01-03T15:19:09.677Z,94835.88
2019-01-03T15:21:39.437Z,94835.05
2019-01-03T15:24:09.154Z,94835.84
2019-01-03T15:26:38.711Z,94839.09
2019-01-03T15:29:08.067Z,94835.55
2019-01-03T15:31:37.825Z,94838.24
2019-01-03T15:34:07.203Z,94838.05
2019-01-03T15:36:37.028Z,94841.81
2019-01-03T15:39:06.953Z,94842.39
2019-01-03T15:41:36.355Z,94845.34
2019-01-03T15:44:06.037Z,94844.73
2019-01-03T15:46:38.118Z,94841.44
2019-01-03T15:49:07.482Z,94838.02
2019-01-03T15:51:37.183Z,94839.66
2019-01-03T15:54:06.911Z,94844.86
2019-01-03T15:56:36.615Z,94855.52
2019-01-03T15:59:06.124Z,94857.33
2019-01-03T16:01:35.881Z,94860.28
2019-01-03T16:04:05.246Z,94859.52
2019-01-03T16:06:34.652Z,94862.17
2019-01-03T16:26:24.015Z,94866.99
2019-01-03T16:28:53.356Z,94879.55
2019-01-03T16:31:22.708Z,94880.11
2019-01-03T16:33:52.296Z,94888.28
2019-01-03T16:36:21.631Z,94887.54
2019-01-03T16:56:11.282Z,94898.62
2019-01-03T16:58:40.623Z,94899.48
2019-01-03T17:01:09.904Z,94899.48
2019-01-03T17:03:39.735Z,94904.52
2019-01-03T17:06:09.212Z,94912.33
2019-01-03T17:08:38.539Z,94916.52
2019-01-03T17:11:08.015Z,94914.34
2019-01-03T17:13:37.414Z,94920.83
2019-01-03T17:16:06.765Z,94931.19
2019-01-03T17:47:30.460Z,94961.08
2019-01-03T18:07:20.563Z,94968.28
2019-01-03T18:09:49.965Z,94973.88
2019-01-03T18:12:19.341Z,94972.30
2019-01-03T18:14:48.644Z,94968.59
2019-01-03T18:17:18.019Z,94969.13
2019-01-03T18:37:08.282Z,94982.92
2019-01-03T18:39:37.867Z,94977.81
2019-01-03T18:42:07.343Z,94977.96
2019-01-03T18:44:36.648Z,94983.77
2019-01-03T18:47:06.313Z,94984.47
2019-01-03T18:49:35.729Z,94980.33
2019-01-03T18:52:05.224Z,94987.05
2019-01-03T18:54:34.803Z,94986.42
2019-01-03T19:14:24.520Z,94985.17
2019-01-03T19:16:54.222Z,94994.81
2019-01-03T19:19:23.565Z,94998.91
2019-01-03T19:21:53.113Z,94999.28
2019-01-03T19:24:22.719Z,95004.12
2019-01-03T19:26:52.121Z,95005.42
2019-01-03T19:29:21.524Z,95005.77
2019-01-03T19:49:12.113Z,95008.91
2019-01-03T19:51:41.534Z,95007.98
2019-01-03T19:54:10.872Z,95022.98
2019-01-03T19:56:40.483Z,95008.61
2019-01-03T19:59:09.844Z,95010.23
2019-01-03T20:01:39.241Z,95007.63
2019-01-03T20:04:08.838Z,95012.45
2019-01-03T20:06:38.208Z,95003.30
2019-01-03T20:09:07.579Z,95008.23
2019-01-03T20:11:36.993Z,95001.80
2019-01-03T20:14:06.342Z,95014.00
2019-01-03T20:16:35.676Z,95011.47
2019-01-03T20:36:26.393Z,95007.51
2019-01-03T20:38:55.812Z,95019.36
2019-01-03T20:41:25.103Z,95018.56
2019-01-03T20:43:54.513Z,95016.94
2019-01-03T20:46:23.874Z,95019.83
2019-01-03T21:06:12.997Z,95016.34
2019-01-03T21:08:42.427Z,95014.09
2019-01-03T21:11:11.817Z,95015.06
2019-01-03T21:13:41.431Z,95016.52
2019-01-03T21:16:10.779Z,95018.22
2019-01-03T21:18:40.172Z,95013.44
2019-01-03T21:21:09.780Z,95016.64
2019-01-03T21:23:40.107Z,95013.48
2019-01-03T21:26:09.538Z,95012.85
2019-01-03T21:48:53.218Z,95023.86
2019-01-03T21:51:22.385Z,95031.06
2019-01-03T22:11:11.848Z,95055.16
2019-01-03T22:13:41.484Z,95053.75
2019-01-03T22:33:30.636Z,95073.93
2019-01-03T22:36:00.154Z,95086.75
2019-01-03T22:38:29.560Z,95077.16
2019-01-03T22:40:59.123Z,95080.97
2019-01-03T22:43:28.658Z,95079.23
2019-01-03T22:45:58.099Z,95079.70
2019-01-03T22:48:27.717Z,95081.62
2019-01-03T22:50:57.949Z,95084.84
2019-01-03T22:53:27.593Z,95092.82
2019-01-03T22:55:59.769Z,95093.77
2019-01-03T22:58:29.317Z,95097.60
2019-01-03T23:00:59.633Z,95087.36
2019-01-03T23:03:32.066Z,95098.73
2019-01-03T23:06:01.603Z,95097.45
2019-01-03T23:08:31.035Z,95091.72
2019-01-03T23:11:00.588Z,95093.30
2019-01-03T23:13:30.120Z,95087.86
2019-01-03T23:16:00.916Z,95085.63
2019-01-03T23:18:31.453Z,95095.69
2019-01-03T23:20:59.890Z,95100.19
2019-01-03T23:23:29.195Z,95099.38
2019-01-03T23:25:58.545Z,95098.09
2019-01-03T23:28:27.933Z,95104.96
2019-01-03T23:30:57.362Z,95104.98
2019-01-03T23:33:26.986Z,95103.53
2019-01-03T23:35:56.403Z,95110.09
2019-01-03T23:38:25.816Z,95120.45
2019-01-03T23:58:16.712Z,95129.56
